sensor_id;sensor_type;location;lat;lon;timestamp;temperature;humidity
61151;DHT22;47029;50.994;2.876;2022-11-15T00:00:28;10.70;99.90
61151;DHT22;47029;50.994;2.876;2022-11-15T00:02:54;10.80;99.90
61151;DHT22;47029;50.994;2.876;2022-11-15T00:05:23;10.80;99.90
61151;DHT22;47029;50.994;2.876;2022-11-15T00:07:49;10.90;99.90
61151;DHT22;47029;50.994;2.876;2022-11-15T00:10:15;11.00;99.90
61151;DHT22;47029;50.994;2.876;2022-11-15T00:12:41;11.00;99.90
61151;DHT22;47029;50.994;2.876;2022-11-15T00:15:07;11.20;99.90
61151;DHT22;47029;50.994;2.876;2022-11-15T00:17:33;11.20;99.90
61151;DHT22;47029;50.994;2.876;2022-11-15T00:19:59;11.40;99.90
61151;DHT22;47029;50.994;2.876;2022-11-15T00:22:31;11.50;99.90
61151;DHT22;47029;50.994;2.876;2022-11-15T00:24:57;11.50;99.90
61151;DHT22;47029;50.994;2.876;2022-11-15T00:27:23;11.50;99.90
61151;DHT22;47029;50.994;2.876;2022-11-15T00:29:49;11.60;99.90
61151;DHT22;47029;50.994;2.876;2022-11-15T00:32:14;11.60;99.90
61151;DHT22;47029;50.994;2.876;2022-11-15T00:34:40;11.50;99.90
61151;DHT22;47029;50.994;2.876;2022-11-15T00:37:06;11.30;99.90
61151;DHT22;47029;50.994;2.876;2022-11-15T00:39:32;11.30;99.90
61151;DHT22;47029;50.994;2.876;2022-11-15T00:41:58;11.30;99.90
61151;DHT22;47029;50.994;2.876;2022-11-15T00:44:24;11.30;99.90
61151;DHT22;47029;50.994;2.876;2022-11-15T00:46:50;11.50;99.90
61151;DHT22;47029;50.994;2.876;2022-11-15T00:49:16;11.50;99.90
61151;DHT22;47029;50.994;2.876;2022-11-15T00:51:45;11.40;99.90
61151;DHT22;47029;50.994;2.876;2022-11-15T00:54:11;11.50;99.90
61151;DHT22;47029;50.994;2.876;2022-11-15T00:56:37;11.60;99.90
61151;DHT22;47029;50.994;2.876;2022-11-15T00:59:03;11.60;99.90
61151;DHT22;47029;50.994;2.876;2022-11-15T01:01:28;11.70;99.90
61151;DHT22;47029;50.994;2.876;2022-11-15T01:03:54;11.90;99.90
61151;DHT22;47029;50.994;2.876;2022-11-15T01:06:20;11.90;99.90
61151;DHT22;47029;50.994;2.876;2022-11-15T01:08:46;11.90;99.90
61151;DHT22;47029;50.994;2.876;2022-11-15T01:11:14;11.70;99.90
61151;DHT22;47029;50.994;2.876;2022-11-15T01:13:40;11.70;99.90
61151;DHT22;47029;50.994;2.876;2022-11-15T01:16:08;11.70;99.90
61151;DHT22;47029;50.994;2.876;2022-11-15T01:18:34;11.70;99.90
61151;DHT22;47029;50.994;2.876;2022-11-15T01:21:05;11.80;99.90
61151;DHT22;47029;50.994;2.876;2022-11-15T01:23:33;11.60;99.90
61151;DHT22;47029;50.994;2.876;2022-11-15T01:26:04;11.70;99.90
61151;DHT22;47029;50.994;2.876;2022-11-15T01:28:35;11.50;99.90
61151;DHT22;47029;50.994;2.876;2022-11-15T01:31:03;11.50;99.90
61151;DHT22;47029;50.994;2.876;2022-11-15T01:33:30;11.60;99.90
61151;DHT22;47029;50.994;2.876;2022-11-15T01:35:56;11.60;99.90
61151;DHT22;47029;50.994;2.876;2022-11-15T01:38:22;11.50;99.90
61151;DHT22;47029;50.994;2.876;2022-11-15T01:40:49;11.60;99.90
61151;DHT22;47029;50.994;2.876;2022-11-15T01:43:27;11.60;99.90
61151;DHT22;47029;50.994;2.876;2022-11-15T01:48:53;11.50;99.90
61151;DHT22;47029;50.994;2.876;2022-11-15T01:51:22;11.30;99.90
61151;DHT22;47029;50.994;2.876;2022-11-15T01:53:53;11.40;99.90
61151;DHT22;47029;50.994;2.876;2022-11-15T01:56:23;11.40;99.90
61151;DHT22;47029;50.994;2.876;2022-11-15T01:58:50;11.60;99.90
61151;DHT22;47029;50.994;2.876;2022-11-15T02:01:17;11.50;99.90
61151;DHT22;47029;50.994;2.876;2022-11-15T02:03:54;11.70;99.90
61151;DHT22;47029;50.994;2.876;2022-11-15T02:06:23;11.60;99.90
61151;DHT22;47029;50.994;2.876;2022-11-15T02:08:50;11.60;99.90
61151;DHT22;47029;50.994;2.876;2022-11-15T02:11:16;11.50;99.90
61151;DHT22;47029;50.994;2.876;2022-11-15T02:13:45;11.40;99.90
61151;DHT22;47029;50.994;2.876;2022-11-15T02:19:04;11.20;99.90
61151;DHT22;47029;50.994;2.876;2022-11-15T02:21:59;11.00;99.90
61151;DHT22;47029;50.994;2.876;2022-11-15T02:24:49;11.40;99.90
61151;DHT22;47029;50.994;2.876;2022-11-15T02:32:54;11.40;99.90
61151;DHT22;47029;50.994;2.876;2022-11-15T02:37:56;11.40;99.90
61151;DHT22;47029;50.994;2.876;2022-11-15T02:41:05;11.40;99.90
61151;DHT22;47029;50.994;2.876;2022-11-15T02:43:56;11.50;99.90
61151;DHT22;47029;50.994;2.876;2022-11-15T02:46:31;11.40;99.90
61151;DHT22;47029;50.994;2.876;2022-11-15T02:49:17;11.40;99.90
61151;DHT22;47029;50.994;2.876;2022-11-15T02:51:48;11.20;99.90
61151;DHT22;47029;50.994;2.876;2022-11-15T02:54:21;11.40;99.90
61151;DHT22;47029;50.994;2.876;2022-11-15T02:56:50;10.80;99.90
61151;DHT22;47029;50.994;2.876;2022-11-15T03:08:17;10.70;99.90
61151;DHT22;47029;50.994;2.876;2022-11-15T03:11:04;10.50;99.90
61151;DHT22;47029;50.994;2.876;2022-11-15T03:13:38;10.60;99.90
61151;DHT22;47029;50.994;2.876;2022-11-15T03:16:23;10.50;99.90
61151;DHT22;47029;50.994;2.876;2022-11-15T03:19:17;10.50;99.90
61151;DHT22;47029;50.994;2.876;2022-11-15T03:21:40;10.60;99.90
61151;DHT22;47029;50.994;2.876;2022-11-15T03:24:08;10.30;99.90
61151;DHT22;47029;50.994;2.876;2022-11-15T03:26:38;10.40;99.90
61151;DHT22;47029;50.994;2.876;2022-11-15T03:29:13;10.30;99.90
61151;DHT22;47029;50.994;2.876;2022-11-15T03:31:45;10.20;99.90
61151;DHT22;47029;50.994;2.876;2022-11-15T03:36:47;10.00;99.90
61151;DHT22;47029;50.994;2.876;2022-11-15T03:39:14;10.00;99.90
61151;DHT22;47029;50.994;2.876;2022-11-15T03:41:45;10.10;99.90
61151;DHT22;47029;50.994;2.876;2022-11-15T03:46:55;10.00;99.90
61151;DHT22;47029;50.994;2.876;2022-11-15T03:49:28;9.90;99.90
61151;DHT22;47029;50.994;2.876;2022-11-15T03:51:57;9.90;99.90
61151;DHT22;47029;50.994;2.876;2022-11-15T03:54:23;9.80;99.90
61151;DHT22;47029;50.994;2.876;2022-11-15T03:56:49;9.90;99.90
61151;DHT22;47029;50.994;2.876;2022-11-15T03:59:15;9.90;99.90
61151;DHT22;47029;50.994;2.876;2022-11-15T04:01:41;9.80;99.90
61151;DHT22;47029;50.994;2.876;2022-11-15T04:04:07;9.80;99.90
61151;DHT22;47029;50.994;2.876;2022-11-15T04:06:33;9.90;99.90
61151;DHT22;47029;50.994;2.876;2022-11-15T04:08:59;9.80;99.90
61151;DHT22;47029;50.994;2.876;2022-11-15T04:11:25;9.80;99.90
61151;DHT22;47029;50.994;2.876;2022-11-15T04:13:51;9.80;99.90
61151;DHT22;47029;50.994;2.876;2022-11-15T04:16:19;9.70;99.90
61151;DHT22;47029;50.994;2.876;2022-11-15T04:18:45;9.70;99.90
61151;DHT22;47029;50.994;2.876;2022-11-15T04:21:30;9.80;99.90
61151;DHT22;47029;50.994;2.876;2022-11-15T04:24:14;9.60;99.90
61151;DHT22;47029;50.994;2.876;2022-11-15T04:26:40;10.90;99.90
61151;DHT22;47029;50.994;2.876;2022-11-15T04:29:07;9.90;99.90
61151;DHT22;47029;50.994;2.876;2022-11-15T04:31:51;9.70;99.90
61151;DHT22;47029;50.994;2.876;2022-11-15T04:34:17;9.70;99.90
61151;DHT22;47029;50.994;2.876;2022-11-15T04:36:43;9.80;99.90
61151;DHT22;47029;50.994;2.876;2022-11-15T04:39:27;9.80;99.90
61151;DHT22;47029;50.994;2.876;2022-11-15T04:41:55;9.80;99.90
61151;DHT22;47029;50.994;2.876;2022-11-15T04:44:23;9.70;99.90
61151;DHT22;47029;50.994;2.876;2022-11-15T04:46:50;9.70;99.90
61151;DHT22;47029;50.994;2.876;2022-11-15T04:49:16;9.80;99.90
61151;DHT22;47029;50.994;2.876;2022-11-15T04:51:41;9.60;99.90
61151;DHT22;47029;50.994;2.876;2022-11-15T04:54:07;9.60;99.90
61151;DHT22;47029;50.994;2.876;2022-11-15T04:56:33;9.60;99.90
61151;DHT22;47029;50.994;2.876;2022-11-15T04:58:59;9.60;99.90
61151;DHT22;47029;50.994;2.876;2022-11-15T05:01:25;9.40;99.90
61151;DHT22;47029;50.994;2.876;2022-11-15T05:03:51;9.40;99.90
61151;DHT22;47029;50.994;2.876;2022-11-15T05:06:35;9.40;99.90
61151;DHT22;47029;50.994;2.876;2022-11-15T05:09:02;9.40;99.90
61151;DHT22;47029;50.994;2.876;2022-11-15T05:11:28;9.40;99.90
61151;DHT22;47029;50.994;2.876;2022-11-15T05:13:54;9.30;99.90
61151;DHT22;47029;50.994;2.876;2022-11-15T05:16:23;9.40;99.90
61151;DHT22;47029;50.994;2.876;2022-11-15T05:18:53;9.40;99.90
61151;DHT22;47029;50.994;2.876;2022-11-15T05:21:20;9.40;99.90
61151;DHT22;47029;50.994;2.876;2022-11-15T05:23:46;9.30;99.90
61151;DHT22;47029;50.994;2.876;2022-11-15T05:26:14;9.20;99.90
61151;DHT22;47029;50.994;2.876;2022-11-15T05:28:40;9.30;99.90
61151;DHT22;47029;50.994;2.876;2022-11-15T05:31:09;9.30;99.90
61151;DHT22;47029;50.994;2.876;2022-11-15T05:33:39;9.30;99.90
61151;DHT22;47029;50.994;2.876;2022-11-15T05:38:51;9.30;99.90
61151;DHT22;47029;50.994;2.876;2022-11-15T05:41:20;9.20;99.90
61151;DHT22;47029;50.994;2.876;2022-11-15T05:43:49;9.30;99.90
61151;DHT22;47029;50.994;2.876;2022-11-15T05:46:20;9.20;99.90
61151;DHT22;47029;50.994;2.876;2022-11-15T05:48:51;9.30;99.90
61151;DHT22;47029;50.994;2.876;2022-11-15T05:51:19;9.20;99.90
61151;DHT22;47029;50.994;2.876;2022-11-15T05:53:46;9.20;99.90
61151;DHT22;47029;50.994;2.876;2022-11-15T05:56:12;9.10;99.90
61151;DHT22;47029;50.994;2.876;2022-11-15T05:58:39;9.10;99.90
61151;DHT22;47029;50.994;2.876;2022-11-15T06:01:05;9.00;99.90
61151;DHT22;47029;50.994;2.876;2022-11-15T06:03:31;9.10;99.90
61151;DHT22;47029;50.994;2.876;2022-11-15T06:05:57;9.10;99.90
61151;DHT22;47029;50.994;2.876;2022-11-15T06:08:24;9.00;99.90
61151;DHT22;47029;50.994;2.876;2022-11-15T06:10:50;9.00;99.90
61151;DHT22;47029;50.994;2.876;2022-11-15T06:13:16;9.00;99.90
61151;DHT22;47029;50.994;2.876;2022-11-15T06:15:42;9.00;99.90
61151;DHT22;47029;50.994;2.876;2022-11-15T06:18:10;9.00;99.90
61151;DHT22;47029;50.994;2.876;2022-11-15T06:20:36;9.10;99.90
61151;DHT22;47029;50.994;2.876;2022-11-15T06:23:04;9.00;99.90
61151;DHT22;47029;50.994;2.876;2022-11-15T06:25:30;9.00;99.90
61151;DHT22;47029;50.994;2.876;2022-11-15T06:27:58;9.00;99.90
61151;DHT22;47029;50.994;2.876;2022-11-15T06:30:25;9.00;99.90
61151;DHT22;47029;50.994;2.876;2022-11-15T06:32:51;9.10;99.90
61151;DHT22;47029;50.994;2.876;2022-11-15T06:35:23;9.00;99.90
61151;DHT22;47029;50.994;2.876;2022-11-15T06:37:50;9.00;99.90
61151;DHT22;47029;50.994;2.876;2022-11-15T06:40:18;9.00;99.90
61151;DHT22;47029;50.994;2.876;2022-11-15T06:42:44;9.10;99.90
61151;DHT22;47029;50.994;2.876;2022-11-15T06:45:10;9.10;99.90
61151;DHT22;47029;50.994;2.876;2022-11-15T06:47:46;9.00;99.90
61151;DHT22;47029;50.994;2.876;2022-11-15T06:50:13;9.00;99.90
61151;DHT22;47029;50.994;2.876;2022-11-15T06:52:38;9.10;99.90
61151;DHT22;47029;50.994;2.876;2022-11-15T06:55:05;9.10;99.90
61151;DHT22;47029;50.994;2.876;2022-11-15T06:57:31;9.20;99.90
61151;DHT22;47029;50.994;2.876;2022-11-15T06:59:57;9.20;99.90
61151;DHT22;47029;50.994;2.876;2022-11-15T07:02:23;9.10;99.90
61151;DHT22;47029;50.994;2.876;2022-11-15T07:04:51;9.00;99.90
61151;DHT22;47029;50.994;2.876;2022-11-15T07:07:20;9.10;99.90
61151;DHT22;47029;50.994;2.876;2022-11-15T07:09:45;9.10;99.90
61151;DHT22;47029;50.994;2.876;2022-11-15T07:12:12;10.40;99.90
61151;DHT22;47029;50.994;2.876;2022-11-15T07:14:38;9.10;99.90
61151;DHT22;47029;50.994;2.876;2022-11-15T07:17:04;9.10;99.90
61151;DHT22;47029;50.994;2.876;2022-11-15T07:19:30;9.10;99.90
61151;DHT22;47029;50.994;2.876;2022-11-15T07:21:57;9.10;99.90
61151;DHT22;47029;50.994;2.876;2022-11-15T07:24:23;9.10;99.90
61151;DHT22;47029;50.994;2.876;2022-11-15T07:26:48;9.20;99.90
61151;DHT22;47029;50.994;2.876;2022-11-15T07:29:14;9.20;99.90
61151;DHT22;47029;50.994;2.876;2022-11-15T07:31:40;9.20;99.90
61151;DHT22;47029;50.994;2.876;2022-11-15T07:34:07;9.20;99.90
61151;DHT22;47029;50.994;2.876;2022-11-15T07:36:35;9.20;99.90
61151;DHT22;47029;50.994;2.876;2022-11-15T07:39:02;9.30;99.90
61151;DHT22;47029;50.994;2.876;2022-11-15T07:41:28;9.20;99.90
61151;DHT22;47029;50.994;2.876;2022-11-15T07:43:54;9.30;99.90
61151;DHT22;47029;50.994;2.876;2022-11-15T07:46:21;9.30;99.90
61151;DHT22;47029;50.994;2.876;2022-11-15T07:48:46;9.20;99.90
61151;DHT22;47029;50.994;2.876;2022-11-15T07:51:13;9.30;99.90
61151;DHT22;47029;50.994;2.876;2022-11-15T07:53:42;9.40;99.90
61151;DHT22;47029;50.994;2.876;2022-11-15T07:56:09;9.50;99.90
61151;DHT22;47029;50.994;2.876;2022-11-15T07:58:35;9.50;99.90
61151;DHT22;47029;50.994;2.876;2022-11-15T08:01:09;9.50;99.90
61151;DHT22;47029;50.994;2.876;2022-11-15T08:03:36;9.50;99.90
61151;DHT22;47029;50.994;2.876;2022-11-15T08:06:05;9.60;99.90
61151;DHT22;47029;50.994;2.876;2022-11-15T08:08:31;9.60;99.90
61151;DHT22;47029;50.994;2.876;2022-11-15T08:11:00;9.60;99.90
61151;DHT22;47029;50.994;2.876;2022-11-15T08:13:26;9.70;99.90
61151;DHT22;47029;50.994;2.876;2022-11-15T08:15:58;9.70;99.90
61151;DHT22;47029;50.994;2.876;2022-11-15T08:18:24;9.80;99.90
61151;DHT22;47029;50.994;2.876;2022-11-15T08:20:49;9.80;99.90
61151;DHT22;47029;50.994;2.876;2022-11-15T08:23:18;9.90;99.90
61151;DHT22;47029;50.994;2.876;2022-11-15T08:25:46;9.90;99.90
61151;DHT22;47029;50.994;2.876;2022-11-15T08:28:12;9.90;99.90
61151;DHT22;47029;50.994;2.876;2022-11-15T08:30:40;9.90;99.90
61151;DHT22;47029;50.994;2.876;2022-11-15T08:33:10;10.00;99.90
61151;DHT22;47029;50.994;2.876;2022-11-15T08:35:37;10.00;99.90
61151;DHT22;47029;50.994;2.876;2022-11-15T08:38:03;10.00;99.90
61151;DHT22;47029;50.994;2.876;2022-11-15T08:40:28;10.00;99.90
61151;DHT22;47029;50.994;2.876;2022-11-15T08:42:57;10.30;99.90
61151;DHT22;47029;50.994;2.876;2022-11-15T08:45:26;10.10;99.90
61151;DHT22;47029;50.994;2.876;2022-11-15T08:47:55;10.20;99.90
61151;DHT22;47029;50.994;2.876;2022-11-15T08:50:20;10.20;99.90
61151;DHT22;47029;50.994;2.876;2022-11-15T08:52:46;10.20;99.90
61151;DHT22;47029;50.994;2.876;2022-11-15T08:55:13;10.30;99.90
61151;DHT22;47029;50.994;2.876;2022-11-15T08:57:39;10.30;99.90
61151;DHT22;47029;50.994;2.876;2022-11-15T09:00:05;10.40;99.90
61151;DHT22;47029;50.994;2.876;2022-11-15T09:02:32;10.40;99.90
61151;DHT22;47029;50.994;2.876;2022-11-15T09:04:58;10.50;99.90
61151;DHT22;47029;50.994;2.876;2022-11-15T09:07:23;10.50;99.90
61151;DHT22;47029;50.994;2.876;2022-11-15T09:09:49;10.50;99.90
61151;DHT22;47029;50.994;2.876;2022-11-15T09:12:16;10.50;99.90
61151;DHT22;47029;50.994;2.876;2022-11-15T09:14:42;10.60;99.90
61151;DHT22;47029;50.994;2.876;2022-11-15T09:17:08;10.60;99.90
61151;DHT22;47029;50.994;2.876;2022-11-15T09:19:35;10.60;99.90
61151;DHT22;47029;50.994;2.876;2022-11-15T09:22:01;10.60;99.90
61151;DHT22;47029;50.994;2.876;2022-11-15T09:24:26;10.60;99.90
61151;DHT22;47029;50.994;2.876;2022-11-15T09:26:52;10.70;99.90
61151;DHT22;47029;50.994;2.876;2022-11-15T09:29:23;10.70;99.90
61151;DHT22;47029;50.994;2.876;2022-11-15T09:31:52;10.90;99.90
61151;DHT22;47029;50.994;2.876;2022-11-15T09:34:18;10.90;99.90
61151;DHT22;47029;50.994;2.876;2022-11-15T09:36:44;11.00;99.90
61151;DHT22;47029;50.994;2.876;2022-11-15T09:39:10;11.10;99.90
61151;DHT22;47029;50.994;2.876;2022-11-15T09:41:39;11.20;99.90
61151;DHT22;47029;50.994;2.876;2022-11-15T09:49:06;11.20;99.90
61151;DHT22;47029;50.994;2.876;2022-11-15T09:51:41;11.20;99.90
61151;DHT22;47029;50.994;2.876;2022-11-15T09:56:47;11.20;99.90
61151;DHT22;47029;50.994;2.876;2022-11-15T10:04:37;11.20;99.90
61151;DHT22;47029;50.994;2.876;2022-11-15T10:09:39;11.30;99.90
61151;DHT22;47029;50.994;2.876;2022-11-15T10:12:09;11.30;99.90
61151;DHT22;47029;50.994;2.876;2022-11-15T10:14:36;11.40;99.90
61151;DHT22;47029;50.994;2.876;2022-11-15T10:17:35;11.40;99.90
61151;DHT22;47029;50.994;2.876;2022-11-15T10:20:19;11.40;99.90
61151;DHT22;47029;50.994;2.876;2022-11-15T10:23:05;11.50;99.90
61151;DHT22;47029;50.994;2.876;2022-11-15T10:25:33;11.40;99.90
61151;DHT22;47029;50.994;2.876;2022-11-15T10:28:17;11.40;99.90
61151;DHT22;47029;50.994;2.876;2022-11-15T10:30:57;11.50;99.90
61151;DHT22;47029;50.994;2.876;2022-11-15T10:36:17;11.60;99.90
61151;DHT22;47029;50.994;2.876;2022-11-15T10:41:20;11.80;99.90
61151;DHT22;47029;50.994;2.876;2022-11-15T10:49:25;11.60;99.90
61151;DHT22;47029;50.994;2.876;2022-11-15T10:52:14;11.70;99.90
61151;DHT22;47029;50.994;2.876;2022-11-15T10:55:31;11.70;99.90
61151;DHT22;47029;50.994;2.876;2022-11-15T10:57:49;11.70;99.90
61151;DHT22;47029;50.994;2.876;2022-11-15T11:03:06;11.70;99.90
61151;DHT22;47029;50.994;2.876;2022-11-15T11:05:39;11.70;99.90
61151;DHT22;47029;50.994;2.876;2022-11-15T11:10:37;11.90;99.90
61151;DHT22;47029;50.994;2.876;2022-11-15T11:13:23;12.00;99.90
61151;DHT22;47029;50.994;2.876;2022-11-15T11:16:09;12.00;99.90
61151;DHT22;47029;50.994;2.876;2022-11-15T11:21:32;12.10;99.90
61151;DHT22;47029;50.994;2.876;2022-11-15T11:24:25;12.30;99.90
61151;DHT22;47029;50.994;2.876;2022-11-15T11:32:30;12.40;99.90
61151;DHT22;47029;50.994;2.876;2022-11-15T11:37:46;12.40;99.90
61151;DHT22;47029;50.994;2.876;2022-11-15T11:48:20;12.30;99.90
61151;DHT22;47029;50.994;2.876;2022-11-15T11:50:49;12.20;99.90
61151;DHT22;47029;50.994;2.876;2022-11-15T11:53:38;12.30;99.90
61151;DHT22;47029;50.994;2.876;2022-11-15T11:56:29;12.30;99.90
61151;DHT22;47029;50.994;2.876;2022-11-15T11:59:10;12.30;99.90
61151;DHT22;47029;50.994;2.876;2022-11-15T12:01:43;12.40;99.90
61151;DHT22;47029;50.994;2.876;2022-11-15T12:07:00;12.30;99.90
61151;DHT22;47029;50.994;2.876;2022-11-15T12:09:33;12.30;99.90
61151;DHT22;47029;50.994;2.876;2022-11-15T12:12:23;12.40;99.90
61151;DHT22;47029;50.994;2.876;2022-11-15T12:15:04;12.30;99.90
61151;DHT22;47029;50.994;2.876;2022-11-15T12:17:37;12.30;99.90
61151;DHT22;47029;50.994;2.876;2022-11-15T12:20:15;12.30;99.90
61151;DHT22;47029;50.994;2.876;2022-11-15T12:25:49;12.40;99.90
61151;DHT22;47029;50.994;2.876;2022-11-15T12:31:00;12.30;99.90
61151;DHT22;47029;50.994;2.876;2022-11-15T12:33:45;12.30;99.90
61151;DHT22;47029;50.994;2.876;2022-11-15T12:39:04;12.20;99.90
61151;DHT22;47029;50.994;2.876;2022-11-15T12:41:36;12.20;99.90
61151;DHT22;47029;50.994;2.876;2022-11-15T12:44:03;12.10;99.90
61151;DHT22;47029;50.994;2.876;2022-11-15T12:48:59;12.00;99.90
61151;DHT22;47029;50.994;2.876;2022-11-15T13:02:34;11.90;99.90
61151;DHT22;47029;50.994;2.876;2022-11-15T13:17:51;11.90;99.90
61151;DHT22;47029;50.994;2.876;2022-11-15T13:23:12;11.80;99.90
61151;DHT22;47029;50.994;2.876;2022-11-15T13:30:52;11.80;99.90
61151;DHT22;47029;50.994;2.876;2022-11-15T13:35:58;11.70;99.90
61151;DHT22;47029;50.994;2.876;2022-11-15T13:40:52;11.80;99.90
61151;DHT22;47029;50.994;2.876;2022-11-15T13:46:21;11.70;99.90
61151;DHT22;47029;50.994;2.876;2022-11-15T13:49:03;11.60;99.90
61151;DHT22;47029;50.994;2.876;2022-11-15T13:51:37;11.70;99.90
61151;DHT22;47029;50.994;2.876;2022-11-15T13:54:14;11.70;99.90
61151;DHT22;47029;50.994;2.876;2022-11-15T13:57:03;11.70;99.90
61151;DHT22;47029;50.994;2.876;2022-11-15T13:59:35;11.70;99.90
61151;DHT22;47029;50.994;2.876;2022-11-15T14:02:12;11.80;99.90
61151;DHT22;47029;50.994;2.876;2022-11-15T14:04:49;11.80;99.90
61151;DHT22;47029;50.994;2.876;2022-11-15T14:07:21;11.70;99.90
61151;DHT22;47029;50.994;2.876;2022-11-15T14:09:48;11.80;99.90
61151;DHT22;47029;50.994;2.876;2022-11-15T14:14:49;11.70;99.90
61151;DHT22;47029;50.994;2.876;2022-11-15T14:17:20;11.70;99.90
61151;DHT22;47029;50.994;2.876;2022-11-15T14:19:46;11.70;99.90
61151;DHT22;47029;50.994;2.876;2022-11-15T14:24:38;11.80;99.90
61151;DHT22;47029;50.994;2.876;2022-11-15T14:27:26;11.70;99.90
61151;DHT22;47029;50.994;2.876;2022-11-15T14:29:52;11.70;99.90
61151;DHT22;47029;50.994;2.876;2022-11-15T14:32:22;11.70;99.90
61151;DHT22;47029;50.994;2.876;2022-11-15T14:34:58;11.70;99.90
61151;DHT22;47029;50.994;2.876;2022-11-15T14:37:33;11.80;99.90
61151;DHT22;47029;50.994;2.876;2022-11-15T14:40:01;11.70;99.90
61151;DHT22;47029;50.994;2.876;2022-11-15T14:42:28;11.70;99.90
61151;DHT22;47029;50.994;2.876;2022-11-15T14:44:54;11.70;99.90
61151;DHT22;47029;50.994;2.876;2022-11-15T14:47:20;11.70;99.90
61151;DHT22;47029;50.994;2.876;2022-11-15T14:49:49;11.70;99.90
61151;DHT22;47029;50.994;2.876;2022-11-15T14:52:31;11.70;99.90
61151;DHT22;47029;50.994;2.876;2022-11-15T14:55:02;11.60;99.90
61151;DHT22;47029;50.994;2.876;2022-11-15T14:57:29;11.60;99.90
61151;DHT22;47029;50.994;2.876;2022-11-15T14:59:56;11.60;99.90
61151;DHT22;47029;50.994;2.876;2022-11-15T15:02:26;11.60;99.90
61151;DHT22;47029;50.994;2.876;2022-11-15T15:04:53;11.60;99.90
61151;DHT22;47029;50.994;2.876;2022-11-15T15:07:20;11.60;99.90
61151;DHT22;47029;50.994;2.876;2022-11-15T15:09:46;11.70;99.90
61151;DHT22;47029;50.994;2.876;2022-11-15T15:14:42;11.60;99.90
61151;DHT22;47029;50.994;2.876;2022-11-15T15:17:08;11.60;99.90
61151;DHT22;47029;50.994;2.876;2022-11-15T15:19:34;11.60;99.90
61151;DHT22;47029;50.994;2.876;2022-11-15T15:22:00;11.60;99.90
61151;DHT22;47029;50.994;2.876;2022-11-15T15:24:26;11.80;99.90
61151;DHT22;47029;50.994;2.876;2022-11-15T15:26:52;11.70;99.90
61151;DHT22;47029;50.994;2.876;2022-11-15T15:29:18;11.70;99.90
61151;DHT22;47029;50.994;2.876;2022-11-15T15:31:44;11.60;99.90
61151;DHT22;47029;50.994;2.876;2022-11-15T15:34:10;11.60;99.90
61151;DHT22;47029;50.994;2.876;2022-11-15T15:36:36;11.70;99.90
61151;DHT22;47029;50.994;2.876;2022-11-15T15:39:02;11.70;99.90
61151;DHT22;47029;50.994;2.876;2022-11-15T15:41:30;11.80;99.90
61151;DHT22;47029;50.994;2.876;2022-11-15T15:43:56;11.80;99.90
61151;DHT22;47029;50.994;2.876;2022-11-15T15:46:27;11.80;99.90
61151;DHT22;47029;50.994;2.876;2022-11-15T15:48:53;11.80;99.90
61151;DHT22;47029;50.994;2.876;2022-11-15T15:51:19;11.90;99.90
61151;DHT22;47029;50.994;2.876;2022-11-15T15:53:46;11.90;99.90
61151;DHT22;47029;50.994;2.876;2022-11-15T15:56:12;11.90;99.90
61151;DHT22;47029;50.994;2.876;2022-11-15T15:58:38;11.90;99.90
61151;DHT22;47029;50.994;2.876;2022-11-15T16:01:04;11.90;99.90
61151;DHT22;47029;50.994;2.876;2022-11-15T16:03:30;11.90;99.90
61151;DHT22;47029;50.994;2.876;2022-11-15T16:05:56;11.90;99.90
61151;DHT22;47029;50.994;2.876;2022-11-15T16:08:24;11.90;99.90
61151;DHT22;47029;50.994;2.876;2022-11-15T16:10:51;12.00;99.90
61151;DHT22;47029;50.994;2.876;2022-11-15T16:13:17;12.00;99.90
61151;DHT22;47029;50.994;2.876;2022-11-15T16:15:48;12.00;99.90
61151;DHT22;47029;50.994;2.876;2022-11-15T16:18:16;12.10;99.90
61151;DHT22;47029;50.994;2.876;2022-11-15T16:20:45;12.10;99.90
61151;DHT22;47029;50.994;2.876;2022-11-15T16:23:13;12.00;99.90
61151;DHT22;47029;50.994;2.876;2022-11-15T16:25:49;12.10;99.90
61151;DHT22;47029;50.994;2.876;2022-11-15T16:30:58;12.10;99.90
61151;DHT22;47029;50.994;2.876;2022-11-15T16:33:24;12.10;99.90
61151;DHT22;47029;50.994;2.876;2022-11-15T16:35:50;12.10;99.90
61151;DHT22;47029;50.994;2.876;2022-11-15T16:38:19;12.10;99.90
61151;DHT22;47029;50.994;2.876;2022-11-15T16:40:45;12.10;99.90
61151;DHT22;47029;50.994;2.876;2022-11-15T16:43:11;12.00;99.90
61151;DHT22;47029;50.994;2.876;2022-11-15T16:45:40;12.00;99.90
61151;DHT22;47029;50.994;2.876;2022-11-15T16:48:06;12.10;99.90
61151;DHT22;47029;50.994;2.876;2022-11-15T16:50:33;12.10;99.90
61151;DHT22;47029;50.994;2.876;2022-11-15T16:53:06;12.10;99.90
61151;DHT22;47029;50.994;2.876;2022-11-15T16:55:31;12.10;99.90
61151;DHT22;47029;50.994;2.876;2022-11-15T16:57:57;12.10;99.90
61151;DHT22;47029;50.994;2.876;2022-11-15T17:00:24;12.10;99.90
61151;DHT22;47029;50.994;2.876;2022-11-15T17:02:50;12.10;99.90
61151;DHT22;47029;50.994;2.876;2022-11-15T17:05:17;12.10;99.90
61151;DHT22;47029;50.994;2.876;2022-11-15T17:07:46;12.20;99.90
61151;DHT22;47029;50.994;2.876;2022-11-15T17:10:15;12.10;99.90
61151;DHT22;47029;50.994;2.876;2022-11-15T17:12:40;12.10;99.90
61151;DHT22;47029;50.994;2.876;2022-11-15T17:15:06;12.10;99.90
61151;DHT22;47029;50.994;2.876;2022-11-15T17:17:34;12.10;99.90
61151;DHT22;47029;50.994;2.876;2022-11-15T17:20:00;12.10;99.90
61151;DHT22;47029;50.994;2.876;2022-11-15T17:22:31;12.10;99.90
61151;DHT22;47029;50.994;2.876;2022-11-15T17:24:57;12.10;99.90
61151;DHT22;47029;50.994;2.876;2022-11-15T17:27:23;12.10;99.90
61151;DHT22;47029;50.994;2.876;2022-11-15T17:29:51;12.10;99.90
61151;DHT22;47029;50.994;2.876;2022-11-15T17:32:17;12.00;99.90
61151;DHT22;47029;50.994;2.876;2022-11-15T17:34:42;12.00;99.90
61151;DHT22;47029;50.994;2.876;2022-11-15T17:37:10;12.00;99.90
61151;DHT22;47029;50.994;2.876;2022-11-15T17:39:36;12.20;99.90
61151;DHT22;47029;50.994;2.876;2022-11-15T17:42:02;12.50;99.90
61151;DHT22;47029;50.994;2.876;2022-11-15T17:44:28;12.20;99.90
61151;DHT22;47029;50.994;2.876;2022-11-15T17:46:54;12.20;99.90
61151;DHT22;47029;50.994;2.876;2022-11-15T17:49:20;12.20;99.90
61151;DHT22;47029;50.994;2.876;2022-11-15T17:51:46;12.20;99.90
61151;DHT22;47029;50.994;2.876;2022-11-15T17:54:12;12.30;99.90
61151;DHT22;47029;50.994;2.876;2022-11-15T17:56:39;12.30;99.90
61151;DHT22;47029;50.994;2.876;2022-11-15T17:59:06;12.30;99.90
61151;DHT22;47029;50.994;2.876;2022-11-15T18:01:34;12.20;99.90
61151;DHT22;47029;50.994;2.876;2022-11-15T18:04:02;12.30;99.90
61151;DHT22;47029;50.994;2.876;2022-11-15T18:06:31;12.30;99.90
61151;DHT22;47029;50.994;2.876;2022-11-15T18:08:57;12.30;99.90
61151;DHT22;47029;50.994;2.876;2022-11-15T18:11:32;12.30;99.90
61151;DHT22;47029;50.994;2.876;2022-11-15T18:14:00;12.40;99.90